createdAt,value
2019-03-18T00:01:42.080Z,0.60
2019-03-18T00:04:11.893Z,0.50
2019-03-18T00:06:41.384Z,0.60
2019-03-18T00:09:11.770Z,0.70
2019-03-18T00:11:41.619Z,0.50
2019-03-18T00:14:11.111Z,0.53
2019-03-18T00:16:41.078Z,0.43
2019-03-18T00:19:10.702Z,0.63
2019-03-18T00:21:40.483Z,0.50
2019-03-18T00:24:09.892Z,0.47
2019-03-18T00:26:40.463Z,0.50
2019-03-18T00:29:09.830Z,0.60
2019-03-18T00:31:39.367Z,0.60
2019-03-18T00:34:08.811Z,0.40
2019-03-18T00:36:39.126Z,0.50
2019-03-18T00:39:08.734Z,0.60
2019-03-18T00:41:38.272Z,0.40
2019-03-18T00:44:07.756Z,0.67
2019-03-18T00:46:37.752Z,0.50
2019-03-18T00:49:07.562Z,0.50
2019-03-18T00:51:37.660Z,0.50
2019-03-18T00:54:07.458Z,0.47
2019-03-18T00:56:36.987Z,0.90
2019-03-18T00:59:06.714Z,0.63
2019-03-18T01:01:36.323Z,0.60
2019-03-18T01:04:06.007Z,0.40
2019-03-18T01:06:35.833Z,0.53
2019-03-18T01:09:07.432Z,0.67
2019-03-18T01:11:38.581Z,0.40
2019-03-18T01:14:08.605Z,0.50
2019-03-18T01:16:38.179Z,0.40
2019-03-18T01:19:07.717Z,0.50
2019-03-18T01:21:37.542Z,0.57
2019-03-18T01:24:07.087Z,0.50
2019-03-18T01:26:36.806Z,0.40
2019-03-18T01:29:06.179Z,0.50
2019-03-18T01:31:35.647Z,0.40
2019-03-18T01:34:05.686Z,0.40
2019-03-18T01:36:35.269Z,0.40
2019-03-18T01:39:07.525Z,0.67
2019-03-18T01:41:37.953Z,0.50
2019-03-18T01:44:07.485Z,0.60
2019-03-18T01:46:37.715Z,0.43
2019-03-18T01:49:10.079Z,0.57
2019-03-18T01:51:39.618Z,0.60
2019-03-18T01:54:10.003Z,0.60
2019-03-18T01:56:39.374Z,0.63
2019-03-18T01:59:08.839Z,0.60
2019-03-18T02:01:38.935Z,0.57
2019-03-18T02:04:09.281Z,0.80
2019-03-18T02:06:39.315Z,0.70
2019-03-18T02:09:09.281Z,0.70
2019-03-18T02:11:39.385Z,0.70
2019-03-18T02:14:09.240Z,0.77
2019-03-18T02:16:38.725Z,0.60
2019-03-18T02:19:08.749Z,0.63
2019-03-18T02:21:38.144Z,0.67
2019-03-18T02:24:07.938Z,0.80
2019-03-18T02:26:37.406Z,0.63
2019-03-18T02:29:07.390Z,0.70
2019-03-18T02:31:37.575Z,0.83
2019-03-18T02:34:07.761Z,0.80
2019-03-18T02:36:38.897Z,0.60
2019-03-18T02:39:08.944Z,0.83
2019-03-18T02:41:39.143Z,0.73
2019-03-18T02:44:09.235Z,0.60
2019-03-18T02:46:39.403Z,0.70
2019-03-18T02:49:09.508Z,0.70
2019-03-18T02:51:39.382Z,0.80
2019-03-18T02:54:08.841Z,0.70
2019-03-18T02:56:38.977Z,0.93
2019-03-18T02:59:08.724Z,0.80
2019-03-18T03:01:38.334Z,1.00
2019-03-18T03:04:08.689Z,0.87
2019-03-18T03:06:39.180Z,0.80
2019-03-18T03:09:08.616Z,0.90
2019-03-18T03:11:38.615Z,0.90
2019-03-18T03:14:08.491Z,0.77
2019-03-18T03:16:38.427Z,1.00
2019-03-18T03:19:08.379Z,0.90
2019-03-18T03:21:38.434Z,0.70
2019-03-18T03:24:07.975Z,0.80
2019-03-18T03:26:37.363Z,0.83
2019-03-18T03:29:07.412Z,0.90
2019-03-18T03:31:37.258Z,0.80
2019-03-18T03:34:12.992Z,0.90
2019-03-18T03:36:39.394Z,1.00
2019-03-18T03:39:08.901Z,1.00
2019-03-18T03:41:38.334Z,1.20
2019-03-18T03:44:08.395Z,0.90
2019-03-18T03:46:43.669Z,0.90
2019-03-18T03:49:09.372Z,1.20
2019-03-18T03:51:39.033Z,1.03
2019-03-18T03:54:08.498Z,1.33
2019-03-18T03:56:38.533Z,0.90
2019-03-18T03:59:08.799Z,1.10
2019-03-18T04:01:39.883Z,0.80
2019-03-18T04:04:09.994Z,0.73
2019-03-18T04:06:40.222Z,1.00
2019-03-18T04:09:10.352Z,1.10
2019-03-18T04:11:40.440Z,0.80
2019-03-18T04:14:10.606Z,0.70
2019-03-18T04:16:44.027Z,1.20
2019-03-18T04:19:12.996Z,0.80
2019-03-18T04:21:43.269Z,0.80
2019-03-18T04:24:12.959Z,1.00
2019-03-18T04:26:42.397Z,0.90
2019-03-18T04:29:11.825Z,1.20
2019-03-18T04:31:41.770Z,1.00
2019-03-18T04:34:11.876Z,1.00
2019-03-18T04:36:41.459Z,1.00
2019-03-18T04:39:11.579Z,1.10
2019-03-18T04:41:40.993Z,1.00
2019-03-18T04:44:11.559Z,0.97
2019-03-18T04:46:41.076Z,1.20
2019-03-18T04:49:11.946Z,0.87
2019-03-18T04:51:42.151Z,1.00
2019-03-18T04:54:12.224Z,0.83
2019-03-18T04:56:41.722Z,0.87
2019-03-18T04:59:11.309Z,0.80
2019-03-18T05:01:40.791Z,0.97
2019-03-18T05:04:10.885Z,0.67
2019-03-18T05:06:41.232Z,0.63
2019-03-18T05:09:10.920Z,1.03
2019-03-18T05:11:41.559Z,0.80
2019-03-18T05:14:11.145Z,0.90
2019-03-18T05:16:41.628Z,1.00
2019-03-18T05:19:11.156Z,0.90
2019-03-18T05:21:40.890Z,1.00
2019-03-18T05:24:11.026Z,0.90
2019-03-18T05:26:40.975Z,0.70
2019-03-18T05:29:10.999Z,0.90
2019-03-18T05:31:41.190Z,1.10
2019-03-18T05:34:10.876Z,1.00
2019-03-18T05:36:40.374Z,1.10
2019-03-18T05:39:10.395Z,1.10
2019-03-18T05:41:40.631Z,1.00
2019-03-18T05:44:11.350Z,1.00
2019-03-18T05:46:40.989Z,0.90
2019-03-18T05:49:10.730Z,0.80
2019-03-18T05:51:40.295Z,0.80
2019-03-18T05:54:10.026Z,0.93
2019-03-18T05:56:40.398Z,0.70
2019-03-18T05:59:09.894Z,0.70
2019-03-18T06:01:40.142Z,0.70
2019-03-18T06:04:09.976Z,0.80
2019-03-18T06:06:40.397Z,1.17
2019-03-18T06:09:10.511Z,0.80
2019-03-18T06:11:40.572Z,0.80
2019-03-18T06:14:12.414Z,1.00
2019-03-18T06:16:42.182Z,0.90
2019-03-18T06:19:12.730Z,1.00
2019-03-18T06:21:42.578Z,0.90
2019-03-18T06:24:12.742Z,1.40
2019-03-18T06:26:42.947Z,1.50
2019-03-18T06:29:14.331Z,1.30
2019-03-18T06:31:43.958Z,1.60
2019-03-18T06:34:13.748Z,1.43
2019-03-18T06:36:43.641Z,1.30
2019-03-18T06:39:16.235Z,1.10
2019-03-18T06:41:48.858Z,1.20
2019-03-18T06:44:21.835Z,1.17
2019-03-18T06:46:52.952Z,1.30
2019-03-18T06:49:23.662Z,1.20
2019-03-18T06:52:05.920Z,1.20
2019-03-18T06:54:37.627Z,1.20
2019-03-18T06:57:07.866Z,1.20
2019-03-18T06:59:37.482Z,1.40
2019-03-18T07:02:07.271Z,1.50
2019-03-18T07:04:36.886Z,0.90
2019-03-18T07:07:09.687Z,1.30
2019-03-18T07:09:39.303Z,1.00
2019-03-18T07:12:11.363Z,0.90
2019-03-18T07:14:41.009Z,1.00
2019-03-18T07:17:10.500Z,1.40
2019-03-18T07:19:40.088Z,1.17
2019-03-18T07:22:13.773Z,1.00
2019-03-18T07:24:43.601Z,1.30
2019-03-18T07:27:14.040Z,1.40
2019-03-18T07:29:43.620Z,1.20
2019-03-18T07:32:13.136Z,1.43
2019-03-18T07:34:42.798Z,1.20
2019-03-18T07:37:12.255Z,2.00
2019-03-18T07:39:42.405Z,1.17
2019-03-18T07:42:12.169Z,1.07
2019-03-18T07:44:41.583Z,1.20
2019-03-18T07:47:11.827Z,0.90
2019-03-18T07:49:42.313Z,1.00
2019-03-18T07:52:12.887Z,0.60
2019-03-18T07:54:42.413Z,1.20
2019-03-18T07:57:12.007Z,0.70
2019-03-18T07:59:41.458Z,0.73
2019-03-18T08:02:11.117Z,1.10
2019-03-18T08:04:42.330Z,0.60
2019-03-18T08:07:12.764Z,0.60
2019-03-18T08:09:43.019Z,0.60
2019-03-18T08:12:13.172Z,0.80
2019-03-18T08:14:42.694Z,0.67
2019-03-18T08:17:12.662Z,0.60
2019-03-18T08:19:42.364Z,1.00
2019-03-18T08:22:13.069Z,0.70
2019-03-18T08:24:42.731Z,0.60
2019-03-18T08:27:12.590Z,0.43
2019-03-18T08:29:42.839Z,0.93
2019-03-18T08:32:13.347Z,0.40
2019-03-18T08:34:42.955Z,0.50
2019-03-18T08:37:12.868Z,0.50
2019-03-18T08:39:42.510Z,0.50
2019-03-18T08:42:12.676Z,0.57
2019-03-18T08:44:42.220Z,0.40
2019-03-18T08:47:12.923Z,0.90
2019-03-18T08:49:42.430Z,0.67
2019-03-18T08:52:12.567Z,0.93
2019-03-18T08:54:42.222Z,0.60
2019-03-18T08:57:12.800Z,0.50
2019-03-18T08:59:42.408Z,0.50
2019-03-18T09:02:12.408Z,0.60
2019-03-18T09:04:41.894Z,0.60
2019-03-18T09:07:12.777Z,0.70
2019-03-18T09:09:42.445Z,0.60
2019-03-18T09:12:13.103Z,0.60
2019-03-18T09:14:43.014Z,0.37
2019-03-18T09:17:17.867Z,0.60
2019-03-18T09:19:47.100Z,0.50
2019-03-18T09:22:17.267Z,0.40
2019-03-18T09:24:47.672Z,0.53
2019-03-18T09:27:17.999Z,0.60
2019-03-18T09:29:47.585Z,0.57
2019-03-18T09:32:17.638Z,0.53
2019-03-18T09:34:47.135Z,0.50
2019-03-18T09:37:16.657Z,0.50
2019-03-18T09:39:46.495Z,0.40
2019-03-18T09:42:18.062Z,0.40
2019-03-18T09:44:47.296Z,0.60
2019-03-18T09:47:17.378Z,0.60
2019-03-18T09:49:48.135Z,0.40
2019-03-18T09:52:17.842Z,0.50
2019-03-18T09:54:47.371Z,0.50
2019-03-18T09:57:26.022Z,0.60
2019-03-18T09:59:48.208Z,0.57
2019-03-18T10:02:18.703Z,0.60
2019-03-18T10:04:48.323Z,0.57
2019-03-18T10:07:19.025Z,0.50
2019-03-18T10:09:48.661Z,0.67
2019-03-18T10:12:21.102Z,0.60
2019-03-18T10:14:50.720Z,0.53
2019-03-18T10:17:20.878Z,0.60
2019-03-18T10:19:53.374Z,0.60
2019-03-18T10:22:22.003Z,0.57
2019-03-18T10:24:51.685Z,0.60
2019-03-18T10:27:21.636Z,0.70
2019-03-18T10:29:51.066Z,0.60
2019-03-18T10:32:28.443Z,0.60
2019-03-18T10:34:58.580Z,0.60
2019-03-18T10:37:28.555Z,0.60
2019-03-18T10:39:58.117Z,0.97
2019-03-18T10:42:27.557Z,0.50
2019-03-18T10:44:56.941Z,0.57
2019-03-18T10:47:26.370Z,0.70
2019-03-18T10:49:55.861Z,0.80
2019-03-18T10:52:25.730Z,1.20
2019-03-18T10:54:55.607Z,1.17
2019-03-18T10:57:25.177Z,0.60
2019-03-18T10:59:54.926Z,0.60
2019-03-18T11:02:24.750Z,0.50
2019-03-18T11:04:54.269Z,0.50
2019-03-18T11:07:24.473Z,0.50
2019-03-18T11:09:54.054Z,0.70
2019-03-18T11:12:24.826Z,0.50
2019-03-18T11:14:54.471Z,0.50
2019-03-18T11:17:23.989Z,0.70
2019-03-18T11:19:58.484Z,0.60
2019-03-18T11:22:26.398Z,0.50
2019-03-18T11:24:56.002Z,0.50
2019-03-18T11:27:25.788Z,0.70
2019-03-18T11:29:55.220Z,0.70
2019-03-18T11:32:25.245Z,0.60
2019-03-18T11:34:54.729Z,0.57
2019-03-18T11:37:26.153Z,0.70
2019-03-18T11:39:55.733Z,0.50
2019-03-18T11:42:27.402Z,1.20
2019-03-18T11:44:57.109Z,0.73
2019-03-18T11:47:27.378Z,0.60
2019-03-18T11:49:57.032Z,1.40
2019-03-18T11:52:26.779Z,0.70
2019-03-18T11:54:56.298Z,0.80
2019-03-18T11:57:26.703Z,0.67
2019-03-18T11:59:56.039Z,0.50
2019-03-18T12:02:27.997Z,0.50
2019-03-18T12:04:59.071Z,0.50
2019-03-18T12:07:28.500Z,0.90
2019-03-18T12:09:57.992Z,1.07
2019-03-18T12:12:28.246Z,0.50
2019-03-18T12:14:58.117Z,1.43
2019-03-18T12:17:28.621Z,1.23
2019-03-18T12:20:00.932Z,0.60
2019-03-18T12:22:30.370Z,0.57
2019-03-18T12:25:02.216Z,0.70
2019-03-18T12:27:31.732Z,1.33
2019-03-18T12:30:02.091Z,1.10
2019-03-18T12:32:31.666Z,0.80
2019-03-18T12:35:01.098Z,0.90
2019-03-18T12:37:30.552Z,0.60
2019-03-18T12:40:00.963Z,0.33
2019-03-18T12:42:31.508Z,0.70
2019-03-18T12:45:00.890Z,0.60
2019-03-18T12:47:30.331Z,0.80
2019-03-18T12:50:00.231Z,0.73
2019-03-18T12:52:29.838Z,0.63
2019-03-18T12:55:01.180Z,0.80
2019-03-18T12:57:30.734Z,0.83
2019-03-18T13:00:00.360Z,0.80
2019-03-18T13:02:30.066Z,0.70
2019-03-18T13:04:59.527Z,0.90
2019-03-18T13:07:30.161Z,1.70
2019-03-18T13:09:59.706Z,0.80
2019-03-18T13:12:29.928Z,2.00
2019-03-18T13:14:59.539Z,1.00
2019-03-18T13:17:29.565Z,0.60
2019-03-18T13:19:59.170Z,0.80
2019-03-18T13:22:29.762Z,1.20
2019-03-18T13:24:59.205Z,0.87
2019-03-18T13:27:28.708Z,1.10
2019-03-18T13:29:58.812Z,1.00
2019-03-18T13:32:28.346Z,0.83
2019-03-18T13:34:57.711Z,1.00
2019-03-18T13:37:27.488Z,0.90
2019-03-18T13:39:57.370Z,0.90
2019-03-18T13:42:26.876Z,1.60
2019-03-18T13:44:56.292Z,0.90
2019-03-18T13:47:25.752Z,1.00
2019-03-18T13:49:55.503Z,0.70
2019-03-18T13:52:25.642Z,0.90
2019-03-18T13:54:56.152Z,0.77
2019-03-18T13:57:26.250Z,0.73
2019-03-18T13:59:55.998Z,0.60
2019-03-18T14:02:26.068Z,0.70
2019-03-18T14:04:55.916Z,0.80
2019-03-18T14:07:26.071Z,0.60
2019-03-18T14:09:59.194Z,0.70
2019-03-18T14:12:28.617Z,0.60
2019-03-18T14:14:58.689Z,0.67
2019-03-18T14:17:29.520Z,0.50
2019-03-18T14:20:00.613Z,0.67
2019-03-18T14:22:30.906Z,0.67
2019-03-18T14:25:00.578Z,0.70
2019-03-18T14:27:30.015Z,0.90
2019-03-18T14:29:59.478Z,0.57
2019-03-18T14:32:29.338Z,0.60
2019-03-18T14:34:58.830Z,0.80
2019-03-18T14:37:28.311Z,0.63
2019-03-18T14:39:58.351Z,0.90
2019-03-18T14:42:29.002Z,0.90
2019-03-18T14:44:59.658Z,0.60
2019-03-18T14:47:29.091Z,0.60
2019-03-18T14:49:58.651Z,0.87
2019-03-18T14:52:28.504Z,0.50
2019-03-18T14:54:59.958Z,0.60
2019-03-18T14:57:30.000Z,1.00
2019-03-18T14:59:59.553Z,0.80
2019-03-18T15:02:29.539Z,0.70
2019-03-18T15:05:00.353Z,0.80
2019-03-18T15:07:29.833Z,0.80
2019-03-18T15:09:59.247Z,0.77
2019-03-18T15:12:29.323Z,0.70
2019-03-18T15:14:59.347Z,1.03
2019-03-18T15:17:29.952Z,0.60
2019-03-18T15:20:00.352Z,0.67
2019-03-18T15:22:30.455Z,0.90
2019-03-18T15:25:00.544Z,0.70
2019-03-18T15:27:30.083Z,8.53
2019-03-18T15:30:02.138Z,1.50
2019-03-18T15:32:31.349Z,0.63
2019-03-18T15:35:02.880Z,0.80
2019-03-18T15:37:32.591Z,0.80
2019-03-18T15:40:02.027Z,0.80
2019-03-18T15:42:31.494Z,0.85
2019-03-18T15:45:03.030Z,0.67
2019-03-18T15:47:32.848Z,0.80
2019-03-18T15:50:02.372Z,0.90
2019-03-18T15:52:31.876Z,0.60
2019-03-18T15:55:01.251Z,0.80
2019-03-18T15:57:30.692Z,0.77
2019-03-18T16:00:00.183Z,0.90
2019-03-18T16:02:29.999Z,0.53
2019-03-18T16:04:59.487Z,0.90
2019-03-18T16:07:30.239Z,0.90
2019-03-18T16:09:59.640Z,0.90
2019-03-18T16:12:29.088Z,0.90
2019-03-18T16:14:59.960Z,1.27
2019-03-18T16:17:30.714Z,1.30
2019-03-18T16:20:00.388Z,0.70
2019-03-18T16:22:29.858Z,0.90
2019-03-18T16:24:59.250Z,0.70
2019-03-18T16:27:28.741Z,0.77
2019-03-18T16:29:58.504Z,0.90
2019-03-18T16:32:28.355Z,0.60
2019-03-18T16:34:57.878Z,0.70
2019-03-18T16:37:27.360Z,0.63
2019-03-18T16:39:56.840Z,0.70
2019-03-18T16:42:26.971Z,0.60
2019-03-18T16:44:56.587Z,0.60
2019-03-18T16:47:27.766Z,0.60
2019-03-18T16:49:57.179Z,0.70
2019-03-18T16:52:35.333Z,1.00
2019-03-18T16:54:57.825Z,1.00
2019-03-18T16:57:28.038Z,1.60
2019-03-18T16:59:57.538Z,1.07
2019-03-18T17:02:27.286Z,0.90
2019-03-18T17:04:56.757Z,0.80
2019-03-18T17:07:26.178Z,0.90
2019-03-18T17:09:58.486Z,1.20
2019-03-18T17:12:28.015Z,0.80
2019-03-18T17:14:58.390Z,0.70
2019-03-18T17:17:28.012Z,0.80
2019-03-18T17:19:57.840Z,0.70
2019-03-18T17:22:27.491Z,0.60
2019-03-18T17:24:56.979Z,0.70
2019-03-18T17:27:26.629Z,0.80
2019-03-18T17:29:57.334Z,0.90
2019-03-18T17:32:27.201Z,0.97
2019-03-18T17:34:57.002Z,5.00
2019-03-18T17:37:27.547Z,1.30
2019-03-18T17:39:57.392Z,1.00
2019-03-18T17:42:26.909Z,1.00
2019-03-18T17:44:56.425Z,0.80
2019-03-18T17:47:27.140Z,0.90
2019-03-18T17:49:58.577Z,1.00
2019-03-18T17:52:28.058Z,0.80
2019-03-18T17:54:57.522Z,1.00
2019-03-18T17:57:27.036Z,0.77
2019-03-18T17:59:56.870Z,0.90
2019-03-18T18:02:26.439Z,1.00
2019-03-18T18:05:02.784Z,0.97
2019-03-18T18:07:27.683Z,0.90
2019-03-18T18:09:57.219Z,0.87
2019-03-18T18:12:27.379Z,1.10
2019-03-18T18:14:59.085Z,1.47
2019-03-18T18:17:28.466Z,2.43
2019-03-18T18:19:58.985Z,2.30
2019-03-18T18:22:28.896Z,1.37
2019-03-18T18:24:58.461Z,1.40
2019-03-18T18:27:28.008Z,1.30
2019-03-18T18:29:57.556Z,1.27
2019-03-18T18:32:27.138Z,1.73
2019-03-18T18:34:56.710Z,1.70
2019-03-18T18:37:26.508Z,1.93
2019-03-18T18:39:56.174Z,2.37
2019-03-18T18:42:26.490Z,2.90
2019-03-18T18:44:57.434Z,2.00
2019-03-18T18:47:27.649Z,1.80
2019-03-18T18:49:57.229Z,2.00
2019-03-18T18:52:26.856Z,1.87
2019-03-18T18:54:57.125Z,2.57
2019-03-18T18:57:26.720Z,2.07
2019-03-18T18:59:56.945Z,1.80
2019-03-18T19:02:27.227Z,2.20
2019-03-18T19:04:57.249Z,2.10
2019-03-18T19:07:27.899Z,1.87
2019-03-18T19:09:58.794Z,1.70
2019-03-18T19:12:29.718Z,2.10
2019-03-18T19:14:59.997Z,1.40
2019-03-18T19:17:29.685Z,1.30
2019-03-18T19:19:59.237Z,1.60
2019-03-18T19:22:28.766Z,1.60
2019-03-18T19:24:59.067Z,1.80
2019-03-18T19:27:28.797Z,2.10
2019-03-18T19:29:58.234Z,2.07
2019-03-18T19:32:27.791Z,2.77
2019-03-18T19:34:57.371Z,2.33
2019-03-18T19:37:28.622Z,2.30
2019-03-18T19:39:58.158Z,4.67
2019-03-18T19:42:27.633Z,3.77
2019-03-18T19:44:56.998Z,2.10
2019-03-18T19:47:26.568Z,1.90
2019-03-18T19:49:56.499Z,2.37
2019-03-18T19:52:25.981Z,1.70
2019-03-18T19:54:55.791Z,1.60
2019-03-18T19:57:25.339Z,1.50
2019-03-18T19:59:55.999Z,1.77
2019-03-18T20:02:25.472Z,1.80
2019-03-18T20:04:55.007Z,2.90
2019-03-18T20:07:24.494Z,2.67
2019-03-18T20:09:57.279Z,2.30
2019-03-18T20:12:27.173Z,2.10
2019-03-18T20:14:58.009Z,1.77
2019-03-18T20:17:27.544Z,1.93
2019-03-18T20:19:57.463Z,4.00
2019-03-18T20:22:27.244Z,2.60
2019-03-18T20:24:56.937Z,2.40
2019-03-18T20:27:26.486Z,3.20
2019-03-18T20:29:57.679Z,2.37
2019-03-18T20:32:27.174Z,2.27
2019-03-18T20:34:57.279Z,2.03
2019-03-18T20:37:26.853Z,1.87
2019-03-18T20:39:57.837Z,1.93
2019-03-18T20:42:27.331Z,1.90
2019-03-18T20:44:56.843Z,2.00
2019-03-18T20:47:27.846Z,2.00
2019-03-18T20:49:57.319Z,1.73
2019-03-18T20:52:26.962Z,3.23
2019-03-18T20:54:56.483Z,2.40
2019-03-18T20:57:30.072Z,2.13
2019-03-18T20:59:59.766Z,2.57
2019-03-18T21:02:29.902Z,2.03
2019-03-18T21:04:59.711Z,2.00
2019-03-18T21:07:29.563Z,2.27
2019-03-18T21:09:59.490Z,1.80
2019-03-18T21:12:30.208Z,1.60
2019-03-18T21:15:02.611Z,1.80
2019-03-18T21:17:32.050Z,2.00
2019-03-18T21:20:01.626Z,1.50
2019-03-18T21:22:31.365Z,2.40
2019-03-18T21:25:02.691Z,1.90
2019-03-18T21:27:32.186Z,4.50
2019-03-18T21:30:02.894Z,2.00
2019-03-18T21:32:32.445Z,1.53
2019-03-18T21:35:01.976Z,2.10
2019-03-18T21:37:31.790Z,1.70
2019-03-18T21:40:01.349Z,1.83
2019-03-18T21:42:32.387Z,1.70
2019-03-18T21:45:02.180Z,1.40
2019-03-18T21:47:32.038Z,1.60
2019-03-18T21:50:01.778Z,2.60
2019-03-18T21:52:31.886Z,1.80
2019-03-18T21:55:04.072Z,1.63
2019-03-18T21:57:34.377Z,2.00
2019-03-18T22:00:04.403Z,2.23
2019-03-18T22:02:34.120Z,2.73
2019-03-18T22:05:04.054Z,2.07
2019-03-18T22:07:33.844Z,2.47
2019-03-18T22:10:05.343Z,2.10
2019-03-18T22:12:34.946Z,2.17
2019-03-18T22:15:05.199Z,2.10
2019-03-18T22:17:35.021Z,2.00
2019-03-18T22:20:05.434Z,1.87
2019-03-18T22:22:35.199Z,2.00
2019-03-18T22:25:05.153Z,1.43
2019-03-18T22:27:35.476Z,1.77
2019-03-18T22:30:05.289Z,2.10
2019-03-18T22:32:34.979Z,1.90
2019-03-18T22:35:05.007Z,1.70
2019-03-18T22:37:34.530Z,1.90
2019-03-18T22:40:04.642Z,1.60
2019-03-18T22:42:34.499Z,1.50
2019-03-18T22:45:04.051Z,1.50
2019-03-18T22:47:33.518Z,1.60
2019-03-18T22:50:02.984Z,1.60
2019-03-18T22:52:32.678Z,1.60
2019-03-18T22:55:02.151Z,1.80
2019-03-18T22:57:31.584Z,1.60
2019-03-18T23:00:00.918Z,1.60
2019-03-18T23:02:30.423Z,1.90
2019-03-18T23:04:59.887Z,1.77
2019-03-18T23:07:30.726Z,1.90
2019-03-18T23:10:00.352Z,1.70
2019-03-18T23:12:29.764Z,2.10
2019-03-18T23:14:59.102Z,1.90
2019-03-18T23:17:29.491Z,2.00
2019-03-18T23:19:58.903Z,1.83
2019-03-18T23:22:29.009Z,1.77
2019-03-18T23:25:06.641Z,6.80
2019-03-18T23:27:29.798Z,2.70
2019-03-18T23:29:59.381Z,2.17
2019-03-18T23:32:28.837Z,2.80
2019-03-18T23:34:58.270Z,2.40
2019-03-18T23:37:27.736Z,2.50
2019-03-18T23:39:57.174Z,2.23
2019-03-18T23:42:26.663Z,2.60
2019-03-18T23:44:56.203Z,2.37
2019-03-18T23:47:25.714Z,2.20
2019-03-18T23:49:55.250Z,2.40
2019-03-18T23:52:24.739Z,2.20
2019-03-18T23:54:54.267Z,2.63
2019-03-18T23:57:23.956Z,2.50
2019-03-18T23:59:53.452Z,2.13
